sensor_id;sensor_type;location;lat;lon;timestamp;temperature;humidity
16412;DHT22;8315;52.104;6.304;2022-07-29T00:01:16;18.50;93.40
16412;DHT22;8315;52.104;6.304;2022-07-29T00:03:43;18.60;93.30
16412;DHT22;8315;52.104;6.304;2022-07-29T00:06:12;18.50;93.50
16412;DHT22;8315;52.104;6.304;2022-07-29T00:08:39;18.60;93.80
16412;DHT22;8315;52.104;6.304;2022-07-29T00:11:06;18.40;93.60
16412;DHT22;8315;52.104;6.304;2022-07-29T00:13:32;18.30;93.90
16412;DHT22;8315;52.104;6.304;2022-07-29T00:15:59;18.30;94.00
16412;DHT22;8315;52.104;6.304;2022-07-29T00:18:27;18.30;94.20
16412;DHT22;8315;52.104;6.304;2022-07-29T00:20:54;18.30;94.10
16412;DHT22;8315;52.104;6.304;2022-07-29T00:23:21;18.30;94.60
16412;DHT22;8315;52.104;6.304;2022-07-29T00:25:48;18.40;94.30
16412;DHT22;8315;52.104;6.304;2022-07-29T00:28:14;18.40;94.20
16412;DHT22;8315;52.104;6.304;2022-07-29T00:30:41;18.40;94.10
16412;DHT22;8315;52.104;6.304;2022-07-29T00:33:08;18.40;93.90
16412;DHT22;8315;52.104;6.304;2022-07-29T00:35:36;18.30;94.30
16412;DHT22;8315;52.104;6.304;2022-07-29T00:38:12;18.30;94.20
16412;DHT22;8315;52.104;6.304;2022-07-29T00:40:39;18.30;94.40
16412;DHT22;8315;52.104;6.304;2022-07-29T00:43:07;18.40;94.30
16412;DHT22;8315;52.104;6.304;2022-07-29T00:45:34;18.30;94.30
16412;DHT22;8315;52.104;6.304;2022-07-29T00:48:01;18.20;94.80
16412;DHT22;8315;52.104;6.304;2022-07-29T00:50:28;18.10;94.90
16412;DHT22;8315;52.104;6.304;2022-07-29T00:52:56;18.20;94.90
16412;DHT22;8315;52.104;6.304;2022-07-29T00:55:23;18.10;94.90
16412;DHT22;8315;52.104;6.304;2022-07-29T00:57:50;18.10;94.90
16412;DHT22;8315;52.104;6.304;2022-07-29T01:00:19;18.00;95.20
16412;DHT22;8315;52.104;6.304;2022-07-29T01:02:48;18.00;95.10
16412;DHT22;8315;52.104;6.304;2022-07-29T01:05:16;18.10;95.10
16412;DHT22;8315;52.104;6.304;2022-07-29T01:07:46;18.00;95.20
16412;DHT22;8315;52.104;6.304;2022-07-29T01:10:16;18.00;95.20
16412;DHT22;8315;52.104;6.304;2022-07-29T01:12:45;18.00;95.10
16412;DHT22;8315;52.104;6.304;2022-07-29T01:15:13;17.90;95.20
16412;DHT22;8315;52.104;6.304;2022-07-29T01:17:41;17.80;95.50
16412;DHT22;8315;52.104;6.304;2022-07-29T01:20:11;17.80;95.30
16412;DHT22;8315;52.104;6.304;2022-07-29T01:22:44;17.90;95.50
16412;DHT22;8315;52.104;6.304;2022-07-29T01:31:22;17.90;95.20
16412;DHT22;8315;52.104;6.304;2022-07-29T01:33:53;17.90;95.20
16412;DHT22;8315;52.104;6.304;2022-07-29T01:36:22;17.90;95.60
16412;DHT22;8315;52.104;6.304;2022-07-29T01:38:51;17.90;95.50
16412;DHT22;8315;52.104;6.304;2022-07-29T01:41:21;17.90;95.10
16412;DHT22;8315;52.104;6.304;2022-07-29T01:43:49;17.90;95.40
16412;DHT22;8315;52.104;6.304;2022-07-29T01:46:19;18.00;95.10
16412;DHT22;8315;52.104;6.304;2022-07-29T01:48:48;17.90;95.10
16412;DHT22;8315;52.104;6.304;2022-07-29T01:51:19;18.00;94.90
16412;DHT22;8315;52.104;6.304;2022-07-29T01:53:47;18.00;94.70
16412;DHT22;8315;52.104;6.304;2022-07-29T01:56:18;17.90;95.20
16412;DHT22;8315;52.104;6.304;2022-07-29T01:58:46;18.00;95.00
16412;DHT22;8315;52.104;6.304;2022-07-29T02:01:14;17.90;95.00
16412;DHT22;8315;52.104;6.304;2022-07-29T02:03:43;17.80;95.30
16412;DHT22;8315;52.104;6.304;2022-07-29T02:06:11;17.80;95.10
16412;DHT22;8315;52.104;6.304;2022-07-29T02:08:39;17.80;95.10
16412;DHT22;8315;52.104;6.304;2022-07-29T02:11:06;17.90;95.20
16412;DHT22;8315;52.104;6.304;2022-07-29T02:13:34;17.90;94.90
16412;DHT22;8315;52.104;6.304;2022-07-29T02:16:02;17.90;95.60
16412;DHT22;8315;52.104;6.304;2022-07-29T02:18:31;17.90;95.80
16412;DHT22;8315;52.104;6.304;2022-07-29T02:21:00;17.90;95.90
16412;DHT22;8315;52.104;6.304;2022-07-29T02:23:27;17.80;96.10
16412;DHT22;8315;52.104;6.304;2022-07-29T02:25:54;17.90;96.20
16412;DHT22;8315;52.104;6.304;2022-07-29T02:28:24;17.80;96.60
16412;DHT22;8315;52.104;6.304;2022-07-29T02:30:53;17.80;96.60
16412;DHT22;8315;52.104;6.304;2022-07-29T02:33:22;17.70;96.70
16412;DHT22;8315;52.104;6.304;2022-07-29T02:35:50;17.70;96.60
16412;DHT22;8315;52.104;6.304;2022-07-29T02:38:20;17.70;96.60
16412;DHT22;8315;52.104;6.304;2022-07-29T02:41:08;17.70;96.80
16412;DHT22;8315;52.104;6.304;2022-07-29T02:43:39;17.60;96.90
16412;DHT22;8315;52.104;6.304;2022-07-29T02:46:08;17.70;96.90
16412;DHT22;8315;52.104;6.304;2022-07-29T02:48:41;17.70;96.90
16412;DHT22;8315;52.104;6.304;2022-07-29T02:51:13;17.60;96.80
16412;DHT22;8315;52.104;6.304;2022-07-29T02:53:45;17.40;96.90
16412;DHT22;8315;52.104;6.304;2022-07-29T02:56:14;17.40;97.20
16412;DHT22;8315;52.104;6.304;2022-07-29T02:58:45;17.30;97.30
16412;DHT22;8315;52.104;6.304;2022-07-29T03:01:14;17.30;97.70
16412;DHT22;8315;52.104;6.304;2022-07-29T03:03:43;17.30;97.60
16412;DHT22;8315;52.104;6.304;2022-07-29T03:06:12;17.30;97.70
16412;DHT22;8315;52.104;6.304;2022-07-29T03:08:40;17.30;97.80
16412;DHT22;8315;52.104;6.304;2022-07-29T03:11:09;17.40;97.80
16412;DHT22;8315;52.104;6.304;2022-07-29T03:13:36;17.40;98.00
16412;DHT22;8315;52.104;6.304;2022-07-29T03:16:04;17.40;97.80
16412;DHT22;8315;52.104;6.304;2022-07-29T03:18:31;17.40;98.00
16412;DHT22;8315;52.104;6.304;2022-07-29T03:20:58;17.40;98.00
16412;DHT22;8315;52.104;6.304;2022-07-29T03:23:25;17.40;98.10
16412;DHT22;8315;52.104;6.304;2022-07-29T03:25:53;17.40;97.90
16412;DHT22;8315;52.104;6.304;2022-07-29T03:28:22;17.40;97.70
16412;DHT22;8315;52.104;6.304;2022-07-29T03:30:49;17.50;97.80
16412;DHT22;8315;52.104;6.304;2022-07-29T03:33:16;17.40;97.50
16412;DHT22;8315;52.104;6.304;2022-07-29T03:35:43;17.40;97.50
16412;DHT22;8315;52.104;6.304;2022-07-29T03:38:10;17.40;97.80
16412;DHT22;8315;52.104;6.304;2022-07-29T03:40:37;17.40;97.50
16412;DHT22;8315;52.104;6.304;2022-07-29T03:43:05;17.30;97.70
16412;DHT22;8315;52.104;6.304;2022-07-29T03:45:34;17.30;98.40
16412;DHT22;8315;52.104;6.304;2022-07-29T03:48:02;17.30;98.40
16412;DHT22;8315;52.104;6.304;2022-07-29T03:50:32;17.30;98.30
16412;DHT22;8315;52.104;6.304;2022-07-29T03:53:00;17.30;98.00
16412;DHT22;8315;52.104;6.304;2022-07-29T03:55:28;17.30;97.60
16412;DHT22;8315;52.104;6.304;2022-07-29T03:57:55;17.30;97.70
16412;DHT22;8315;52.104;6.304;2022-07-29T04:00:23;17.20;97.80
16412;DHT22;8315;52.104;6.304;2022-07-29T04:02:52;17.20;97.90
16412;DHT22;8315;52.104;6.304;2022-07-29T04:05:19;17.30;98.00
16412;DHT22;8315;52.104;6.304;2022-07-29T04:07:45;17.30;97.80
16412;DHT22;8315;52.104;6.304;2022-07-29T04:10:15;17.20;97.80
16412;DHT22;8315;52.104;6.304;2022-07-29T04:12:42;17.20;97.80
16412;DHT22;8315;52.104;6.304;2022-07-29T04:15:09;17.10;98.10
16412;DHT22;8315;52.104;6.304;2022-07-29T04:17:36;17.10;98.00
16412;DHT22;8315;52.104;6.304;2022-07-29T04:20:05;17.00;97.70
16412;DHT22;8315;52.104;6.304;2022-07-29T04:22:32;17.10;98.10
16412;DHT22;8315;52.104;6.304;2022-07-29T04:24:59;17.10;98.10
16412;DHT22;8315;52.104;6.304;2022-07-29T04:27:26;17.00;98.20
16412;DHT22;8315;52.104;6.304;2022-07-29T04:29:53;17.00;98.10
16412;DHT22;8315;52.104;6.304;2022-07-29T04:32:20;16.90;98.40
16412;DHT22;8315;52.104;6.304;2022-07-29T04:34:47;16.80;98.40
16412;DHT22;8315;52.104;6.304;2022-07-29T04:37:15;16.70;98.40
16412;DHT22;8315;52.104;6.304;2022-07-29T04:39:42;16.70;98.40
16412;DHT22;8315;52.104;6.304;2022-07-29T04:42:09;16.60;98.40
16412;DHT22;8315;52.104;6.304;2022-07-29T04:44:36;16.50;98.40
16412;DHT22;8315;52.104;6.304;2022-07-29T04:47:02;16.50;98.40
16412;DHT22;8315;52.104;6.304;2022-07-29T04:49:29;16.50;98.40
16412;DHT22;8315;52.104;6.304;2022-07-29T04:51:56;16.50;98.40
16412;DHT22;8315;52.104;6.304;2022-07-29T04:54:24;16.50;98.40
16412;DHT22;8315;52.104;6.304;2022-07-29T04:56:51;16.50;98.40
16412;DHT22;8315;52.104;6.304;2022-07-29T04:59:18;16.60;98.40
16412;DHT22;8315;52.104;6.304;2022-07-29T05:01:45;16.60;98.40
16412;DHT22;8315;52.104;6.304;2022-07-29T05:04:11;16.60;98.40
16412;DHT22;8315;52.104;6.304;2022-07-29T05:06:38;16.60;98.40
16412;DHT22;8315;52.104;6.304;2022-07-29T05:09:05;16.60;98.40
16412;DHT22;8315;52.104;6.304;2022-07-29T05:11:33;16.40;98.40
16412;DHT22;8315;52.104;6.304;2022-07-29T05:14:00;16.40;98.40
16412;DHT22;8315;52.104;6.304;2022-07-29T05:16:27;16.40;98.40
16412;DHT22;8315;52.104;6.304;2022-07-29T05:18:54;16.50;98.40
16412;DHT22;8315;52.104;6.304;2022-07-29T05:21:20;16.50;98.40
16412;DHT22;8315;52.104;6.304;2022-07-29T05:23:47;16.50;98.40
16412;DHT22;8315;52.104;6.304;2022-07-29T05:26:14;16.20;98.40
16412;DHT22;8315;52.104;6.304;2022-07-29T05:28:42;16.00;98.40
16412;DHT22;8315;52.104;6.304;2022-07-29T05:31:09;16.00;98.40
16412;DHT22;8315;52.104;6.304;2022-07-29T05:33:36;15.90;98.40
16412;DHT22;8315;52.104;6.304;2022-07-29T05:36:03;16.00;98.40
16412;DHT22;8315;52.104;6.304;2022-07-29T05:38:31;15.80;98.40
16412;DHT22;8315;52.104;6.304;2022-07-29T05:40:59;15.90;98.40
16412;DHT22;8315;52.104;6.304;2022-07-29T05:43:26;16.00;98.40
16412;DHT22;8315;52.104;6.304;2022-07-29T05:45:54;16.10;98.40
16412;DHT22;8315;52.104;6.304;2022-07-29T05:48:21;16.00;98.40
16412;DHT22;8315;52.104;6.304;2022-07-29T05:50:48;16.20;98.40
16412;DHT22;8315;52.104;6.304;2022-07-29T05:53:14;16.20;98.40
16412;DHT22;8315;52.104;6.304;2022-07-29T05:55:41;16.00;98.40
16412;DHT22;8315;52.104;6.304;2022-07-29T05:58:08;16.20;98.40
16412;DHT22;8315;52.104;6.304;2022-07-29T06:00:35;16.30;98.40
16412;DHT22;8315;52.104;6.304;2022-07-29T06:03:03;16.30;98.40
16412;DHT22;8315;52.104;6.304;2022-07-29T06:05:30;16.40;98.40
16412;DHT22;8315;52.104;6.304;2022-07-29T06:07:57;16.30;98.40
16412;DHT22;8315;52.104;6.304;2022-07-29T06:10:24;16.20;98.40
16412;DHT22;8315;52.104;6.304;2022-07-29T06:12:51;16.10;98.40
16412;DHT22;8315;52.104;6.304;2022-07-29T06:15:17;16.10;98.40
16412;DHT22;8315;52.104;6.304;2022-07-29T06:17:44;16.10;98.40
16412;DHT22;8315;52.104;6.304;2022-07-29T06:20:13;16.20;98.40
16412;DHT22;8315;52.104;6.304;2022-07-29T06:22:39;16.40;98.40
16412;DHT22;8315;52.104;6.304;2022-07-29T06:25:06;16.40;98.40
16412;DHT22;8315;52.104;6.304;2022-07-29T06:27:34;16.60;98.40
16412;DHT22;8315;52.104;6.304;2022-07-29T06:30:00;16.60;98.40
16412;DHT22;8315;52.104;6.304;2022-07-29T06:32:28;16.50;98.40
16412;DHT22;8315;52.104;6.304;2022-07-29T06:34:56;16.60;98.40
16412;DHT22;8315;52.104;6.304;2022-07-29T06:37:24;16.50;98.40
16412;DHT22;8315;52.104;6.304;2022-07-29T06:39:51;16.40;98.40
16412;DHT22;8315;52.104;6.304;2022-07-29T06:42:41;16.50;98.40
16412;DHT22;8315;52.104;6.304;2022-07-29T06:45:08;16.60;98.40
16412;DHT22;8315;52.104;6.304;2022-07-29T06:47:37;16.60;98.40
16412;DHT22;8315;52.104;6.304;2022-07-29T06:50:04;16.60;98.40
16412;DHT22;8315;52.104;6.304;2022-07-29T06:52:33;16.70;98.40
16412;DHT22;8315;52.104;6.304;2022-07-29T06:54:59;16.70;98.40
16412;DHT22;8315;52.104;6.304;2022-07-29T06:57:26;16.70;98.40
16412;DHT22;8315;52.104;6.304;2022-07-29T06:59:54;16.80;98.40
16412;DHT22;8315;52.104;6.304;2022-07-29T07:02:22;16.80;98.40
16412;DHT22;8315;52.104;6.304;2022-07-29T07:04:49;16.90;98.40
16412;DHT22;8315;52.104;6.304;2022-07-29T07:07:16;16.90;98.40
16412;DHT22;8315;52.104;6.304;2022-07-29T07:09:44;17.00;98.40
16412;DHT22;8315;52.104;6.304;2022-07-29T07:12:11;17.00;98.40
16412;DHT22;8315;52.104;6.304;2022-07-29T07:14:38;16.90;98.40
16412;DHT22;8315;52.104;6.304;2022-07-29T07:17:05;16.90;98.40
16412;DHT22;8315;52.104;6.304;2022-07-29T07:19:32;17.00;98.40
16412;DHT22;8315;52.104;6.304;2022-07-29T07:21:59;17.00;98.40
16412;DHT22;8315;52.104;6.304;2022-07-29T07:24:26;17.20;98.40
16412;DHT22;8315;52.104;6.304;2022-07-29T07:26:54;17.30;98.40
16412;DHT22;8315;52.104;6.304;2022-07-29T07:29:21;17.40;98.40
16412;DHT22;8315;52.104;6.304;2022-07-29T07:31:48;17.40;98.40
16412;DHT22;8315;52.104;6.304;2022-07-29T07:34:15;17.50;98.40
16412;DHT22;8315;52.104;6.304;2022-07-29T07:36:41;17.40;98.40
16412;DHT22;8315;52.104;6.304;2022-07-29T07:39:08;17.40;98.40
16412;DHT22;8315;52.104;6.304;2022-07-29T07:41:35;17.40;98.40
16412;DHT22;8315;52.104;6.304;2022-07-29T07:44:03;17.40;98.40
16412;DHT22;8315;52.104;6.304;2022-07-29T07:46:31;17.40;98.40
16412;DHT22;8315;52.104;6.304;2022-07-29T07:48:58;17.50;98.40
16412;DHT22;8315;52.104;6.304;2022-07-29T07:51:25;17.60;98.40
16412;DHT22;8315;52.104;6.304;2022-07-29T07:53:53;17.70;98.40
16412;DHT22;8315;52.104;6.304;2022-07-29T07:56:19;17.70;98.40
16412;DHT22;8315;52.104;6.304;2022-07-29T07:58:46;17.70;98.40
16412;DHT22;8315;52.104;6.304;2022-07-29T08:01:15;17.70;98.40
16412;DHT22;8315;52.104;6.304;2022-07-29T08:03:44;17.70;98.40
16412;DHT22;8315;52.104;6.304;2022-07-29T08:06:11;17.70;98.40
16412;DHT22;8315;52.104;6.304;2022-07-29T08:08:38;17.70;98.40
16412;DHT22;8315;52.104;6.304;2022-07-29T08:11:04;17.70;98.40
16412;DHT22;8315;52.104;6.304;2022-07-29T08:13:31;17.60;98.40
16412;DHT22;8315;52.104;6.304;2022-07-29T08:15:59;17.70;98.40
16412;DHT22;8315;52.104;6.304;2022-07-29T08:18:29;17.80;98.40
16412;DHT22;8315;52.104;6.304;2022-07-29T08:20:57;17.80;98.40
16412;DHT22;8315;52.104;6.304;2022-07-29T08:23:24;17.80;98.40
16412;DHT22;8315;52.104;6.304;2022-07-29T08:25:52;17.90;98.40
16412;DHT22;8315;52.104;6.304;2022-07-29T08:28:19;18.00;98.40
16412;DHT22;8315;52.104;6.304;2022-07-29T08:30:45;18.00;98.40
16412;DHT22;8315;52.104;6.304;2022-07-29T08:33:12;18.10;98.40
16412;DHT22;8315;52.104;6.304;2022-07-29T08:35:40;18.10;98.40
16412;DHT22;8315;52.104;6.304;2022-07-29T08:38:07;18.10;98.40
16412;DHT22;8315;52.104;6.304;2022-07-29T08:40:34;18.10;98.40
16412;DHT22;8315;52.104;6.304;2022-07-29T08:43:04;18.20;98.40
16412;DHT22;8315;52.104;6.304;2022-07-29T08:45:35;18.20;98.40
16412;DHT22;8315;52.104;6.304;2022-07-29T08:48:09;18.20;98.40
16412;DHT22;8315;52.104;6.304;2022-07-29T08:50:38;18.20;98.40
16412;DHT22;8315;52.104;6.304;2022-07-29T08:53:07;18.20;98.40
16412;DHT22;8315;52.104;6.304;2022-07-29T08:55:38;18.00;98.40
16412;DHT22;8315;52.104;6.304;2022-07-29T08:58:06;18.10;98.40
16412;DHT22;8315;52.104;6.304;2022-07-29T09:00:33;18.20;98.40
16412;DHT22;8315;52.104;6.304;2022-07-29T09:03:01;18.20;98.40
16412;DHT22;8315;52.104;6.304;2022-07-29T09:05:30;18.30;98.40
16412;DHT22;8315;52.104;6.304;2022-07-29T09:07:59;18.40;98.40
16412;DHT22;8315;52.104;6.304;2022-07-29T09:10:26;18.40;98.40
16412;DHT22;8315;52.104;6.304;2022-07-29T09:12:53;18.30;98.40
16412;DHT22;8315;52.104;6.304;2022-07-29T09:15:20;18.20;98.40
16412;DHT22;8315;52.104;6.304;2022-07-29T09:17:48;18.10;98.40
16412;DHT22;8315;52.104;6.304;2022-07-29T09:20:16;18.10;98.40
16412;DHT22;8315;52.104;6.304;2022-07-29T09:22:44;18.10;98.40
16412;DHT22;8315;52.104;6.304;2022-07-29T09:25:13;18.00;98.40
16412;DHT22;8315;52.104;6.304;2022-07-29T09:27:40;18.10;98.40
16412;DHT22;8315;52.104;6.304;2022-07-29T09:30:08;18.10;98.40
16412;DHT22;8315;52.104;6.304;2022-07-29T09:35:22;18.20;98.40
16412;DHT22;8315;52.104;6.304;2022-07-29T09:37:50;18.00;98.40
16412;DHT22;8315;52.104;6.304;2022-07-29T09:40:19;18.00;98.40
16412;DHT22;8315;52.104;6.304;2022-07-29T09:42:47;18.10;98.40
16412;DHT22;8315;52.104;6.304;2022-07-29T09:45:25;18.10;98.40
16412;DHT22;8315;52.104;6.304;2022-07-29T09:47:53;17.90;98.40
16412;DHT22;8315;52.104;6.304;2022-07-29T09:50:22;17.80;98.40
16412;DHT22;8315;52.104;6.304;2022-07-29T09:53:01;18.00;98.40
16412;DHT22;8315;52.104;6.304;2022-07-29T09:55:29;18.10;98.40
16412;DHT22;8315;52.104;6.304;2022-07-29T09:58:02;18.20;98.40
16412;DHT22;8315;52.104;6.304;2022-07-29T10:00:41;18.00;98.40
16412;DHT22;8315;52.104;6.304;2022-07-29T10:03:08;18.10;98.40
16412;DHT22;8315;52.104;6.304;2022-07-29T10:05:35;18.00;98.40
16412;DHT22;8315;52.104;6.304;2022-07-29T10:08:02;18.10;98.40
16412;DHT22;8315;52.104;6.304;2022-07-29T10:10:31;18.00;98.40
16412;DHT22;8315;52.104;6.304;2022-07-29T10:12:59;17.90;98.40
16412;DHT22;8315;52.104;6.304;2022-07-29T10:15:28;17.90;98.40
16412;DHT22;8315;52.104;6.304;2022-07-29T10:17:57;18.00;98.40
16412;DHT22;8315;52.104;6.304;2022-07-29T10:20:25;18.20;98.40
16412;DHT22;8315;52.104;6.304;2022-07-29T10:22:53;18.40;98.40
16412;DHT22;8315;52.104;6.304;2022-07-29T10:25:21;18.60;98.40
16412;DHT22;8315;52.104;6.304;2022-07-29T10:27:50;18.80;98.40
16412;DHT22;8315;52.104;6.304;2022-07-29T10:30:17;18.80;98.40
16412;DHT22;8315;52.104;6.304;2022-07-29T10:32:50;19.00;98.40
16412;DHT22;8315;52.104;6.304;2022-07-29T10:35:37;19.20;98.40
16412;DHT22;8315;52.104;6.304;2022-07-29T10:38:14;19.50;98.40
16412;DHT22;8315;52.104;6.304;2022-07-29T10:40:51;19.70;97.60
16412;DHT22;8315;52.104;6.304;2022-07-29T10:43:43;19.60;96.30
16412;DHT22;8315;52.104;6.304;2022-07-29T10:46:11;20.00;96.90
16412;DHT22;8315;52.104;6.304;2022-07-29T10:54:44;20.30;95.40
16412;DHT22;8315;52.104;6.304;2022-07-29T10:57:17;20.50;95.80
16412;DHT22;8315;52.104;6.304;2022-07-29T11:02:54;20.80;95.40
16412;DHT22;8315;52.104;6.304;2022-07-29T11:05:23;21.00;94.70
16412;DHT22;8315;52.104;6.304;2022-07-29T11:10:46;21.10;93.90
16412;DHT22;8315;52.104;6.304;2022-07-29T11:16:13;21.10;92.80
16412;DHT22;8315;52.104;6.304;2022-07-29T11:21:50;21.40;93.10
16412;DHT22;8315;52.104;6.304;2022-07-29T11:24:19;21.50;91.30
16412;DHT22;8315;52.104;6.304;2022-07-29T11:29:35;21.80;93.00
16412;DHT22;8315;52.104;6.304;2022-07-29T11:32:09;22.00;90.80
16412;DHT22;8315;52.104;6.304;2022-07-29T11:34:37;22.10;90.30
16412;DHT22;8315;52.104;6.304;2022-07-29T11:37:19;22.30;90.00
16412;DHT22;8315;52.104;6.304;2022-07-29T11:39:47;22.20;89.70
16412;DHT22;8315;52.104;6.304;2022-07-29T11:42:42;22.30;88.90
16412;DHT22;8315;52.104;6.304;2022-07-29T11:45:11;22.10;88.30
16412;DHT22;8315;52.104;6.304;2022-07-29T11:47:48;22.20;89.20
16412;DHT22;8315;52.104;6.304;2022-07-29T11:50:29;22.00;88.10
16412;DHT22;8315;52.104;6.304;2022-07-29T11:52:57;22.10;89.80
16412;DHT22;8315;52.104;6.304;2022-07-29T11:55:24;22.40;88.40
16412;DHT22;8315;52.104;6.304;2022-07-29T11:57:52;22.50;86.30
16412;DHT22;8315;52.104;6.304;2022-07-29T12:00:24;22.60;87.80
16412;DHT22;8315;52.104;6.304;2022-07-29T12:02:57;22.60;87.90
16412;DHT22;8315;52.104;6.304;2022-07-29T12:05:35;22.70;87.10
16412;DHT22;8315;52.104;6.304;2022-07-29T12:08:07;22.80;86.90
16412;DHT22;8315;52.104;6.304;2022-07-29T12:10:35;22.90;86.80
16412;DHT22;8315;52.104;6.304;2022-07-29T12:13:02;23.10;86.00
16412;DHT22;8315;52.104;6.304;2022-07-29T12:15:29;23.30;86.30
16412;DHT22;8315;52.104;6.304;2022-07-29T12:17:58;23.50;86.80
16412;DHT22;8315;52.104;6.304;2022-07-29T12:20:25;23.70;84.20
16412;DHT22;8315;52.104;6.304;2022-07-29T12:22:53;23.90;82.80
16412;DHT22;8315;52.104;6.304;2022-07-29T12:25:21;24.00;82.20
16412;DHT22;8315;52.104;6.304;2022-07-29T12:27:57;23.90;79.50
16412;DHT22;8315;52.104;6.304;2022-07-29T12:30:33;23.90;80.40
16412;DHT22;8315;52.104;6.304;2022-07-29T12:33:11;23.90;80.10
16412;DHT22;8315;52.104;6.304;2022-07-29T12:35:39;24.00;81.20
16412;DHT22;8315;52.104;6.304;2022-07-29T12:38:06;24.10;81.20
16412;DHT22;8315;52.104;6.304;2022-07-29T12:40:33;24.20;80.10
16412;DHT22;8315;52.104;6.304;2022-07-29T12:45:46;24.50;80.50
16412;DHT22;8315;52.104;6.304;2022-07-29T12:48:15;24.60;80.30
16412;DHT22;8315;52.104;6.304;2022-07-29T12:50:52;24.60;79.40
16412;DHT22;8315;52.104;6.304;2022-07-29T12:53:20;24.80;77.30
16412;DHT22;8315;52.104;6.304;2022-07-29T12:55:48;24.80;76.30
16412;DHT22;8315;52.104;6.304;2022-07-29T12:58:26;24.70;76.30
16412;DHT22;8315;52.104;6.304;2022-07-29T13:01:00;24.90;78.40
16412;DHT22;8315;52.104;6.304;2022-07-29T13:03:29;25.00;76.60
16412;DHT22;8315;52.104;6.304;2022-07-29T13:09:01;25.10;77.30
16412;DHT22;8315;52.104;6.304;2022-07-29T13:11:30;25.10;77.00
16412;DHT22;8315;52.104;6.304;2022-07-29T13:13:57;25.20;76.70
16412;DHT22;8315;52.104;6.304;2022-07-29T13:16:25;25.20;75.90
16412;DHT22;8315;52.104;6.304;2022-07-29T13:19:04;25.10;73.80
16412;DHT22;8315;52.104;6.304;2022-07-29T13:21:31;25.20;75.10
16412;DHT22;8315;52.104;6.304;2022-07-29T13:23:58;25.30;74.80
16412;DHT22;8315;52.104;6.304;2022-07-29T13:26:25;25.40;73.80
16412;DHT22;8315;52.104;6.304;2022-07-29T13:28:53;25.50;73.80
16412;DHT22;8315;52.104;6.304;2022-07-29T13:31:19;25.40;73.60
16412;DHT22;8315;52.104;6.304;2022-07-29T13:33:47;25.20;73.50
16412;DHT22;8315;52.104;6.304;2022-07-29T13:36:15;25.20;73.10
16412;DHT22;8315;52.104;6.304;2022-07-29T13:38:42;25.30;72.40
16412;DHT22;8315;52.104;6.304;2022-07-29T13:41:09;25.40;73.40
16412;DHT22;8315;52.104;6.304;2022-07-29T13:43:36;25.50;73.70
16412;DHT22;8315;52.104;6.304;2022-07-29T13:46:03;25.60;73.10
16412;DHT22;8315;52.104;6.304;2022-07-29T13:48:29;25.40;71.20
16412;DHT22;8315;52.104;6.304;2022-07-29T13:50:56;25.50;71.80
16412;DHT22;8315;52.104;6.304;2022-07-29T13:53:24;25.60;73.20
16412;DHT22;8315;52.104;6.304;2022-07-29T13:55:52;25.70;74.40
16412;DHT22;8315;52.104;6.304;2022-07-29T13:58:19;25.80;74.50
16412;DHT22;8315;52.104;6.304;2022-07-29T14:00:45;25.90;75.30
16412;DHT22;8315;52.104;6.304;2022-07-29T14:03:12;26.00;77.50
16412;DHT22;8315;52.104;6.304;2022-07-29T14:05:39;26.10;75.10
16412;DHT22;8315;52.104;6.304;2022-07-29T14:08:06;26.10;72.20
16412;DHT22;8315;52.104;6.304;2022-07-29T14:10:34;26.00;72.20
16412;DHT22;8315;52.104;6.304;2022-07-29T14:13:01;25.90;73.80
16412;DHT22;8315;52.104;6.304;2022-07-29T14:15:27;25.90;72.30
16412;DHT22;8315;52.104;6.304;2022-07-29T14:17:54;25.90;72.90
16412;DHT22;8315;52.104;6.304;2022-07-29T14:20:21;26.00;72.80
16412;DHT22;8315;52.104;6.304;2022-07-29T14:22:48;26.10;73.60
16412;DHT22;8315;52.104;6.304;2022-07-29T14:25:14;26.40;73.30
16412;DHT22;8315;52.104;6.304;2022-07-29T14:27:43;26.50;72.90
16412;DHT22;8315;52.104;6.304;2022-07-29T14:30:10;26.70;71.10
16412;DHT22;8315;52.104;6.304;2022-07-29T14:32:37;26.50;71.40
16412;DHT22;8315;52.104;6.304;2022-07-29T14:35:04;26.50;73.70
16412;DHT22;8315;52.104;6.304;2022-07-29T14:37:31;26.80;73.80
16412;DHT22;8315;52.104;6.304;2022-07-29T14:39:59;26.90;72.10
16412;DHT22;8315;52.104;6.304;2022-07-29T14:42:28;26.80;71.30
16412;DHT22;8315;52.104;6.304;2022-07-29T14:44:56;26.90;70.50
16412;DHT22;8315;52.104;6.304;2022-07-29T14:47:23;26.70;71.60
16412;DHT22;8315;52.104;6.304;2022-07-29T14:49:50;26.90;71.50
16412;DHT22;8315;52.104;6.304;2022-07-29T14:52:17;27.20;71.30
16412;DHT22;8315;52.104;6.304;2022-07-29T14:54:43;27.40;71.00
16412;DHT22;8315;52.104;6.304;2022-07-29T14:57:10;27.20;70.40
16412;DHT22;8315;52.104;6.304;2022-07-29T14:59:37;27.00;72.30
16412;DHT22;8315;52.104;6.304;2022-07-29T15:02:05;27.40;72.50
16412;DHT22;8315;52.104;6.304;2022-07-29T15:04:32;27.70;72.10
16412;DHT22;8315;52.104;6.304;2022-07-29T15:06:59;27.90;71.20
16412;DHT22;8315;52.104;6.304;2022-07-29T15:09:26;28.20;70.20
16412;DHT22;8315;52.104;6.304;2022-07-29T15:11:53;28.20;69.00
16412;DHT22;8315;52.104;6.304;2022-07-29T15:14:19;28.20;67.50
16412;DHT22;8315;52.104;6.304;2022-07-29T15:16:46;28.00;66.60
16412;DHT22;8315;52.104;6.304;2022-07-29T15:19:14;27.50;68.20
16412;DHT22;8315;52.104;6.304;2022-07-29T15:21:41;27.90;68.70
16412;DHT22;8315;52.104;6.304;2022-07-29T15:24:08;28.30;68.80
16412;DHT22;8315;52.104;6.304;2022-07-29T15:26:35;28.50;69.30
16412;DHT22;8315;52.104;6.304;2022-07-29T15:29:02;28.60;68.20
16412;DHT22;8315;52.104;6.304;2022-07-29T15:31:28;28.70;66.60
16412;DHT22;8315;52.104;6.304;2022-07-29T15:33:55;28.20;66.40
16412;DHT22;8315;52.104;6.304;2022-07-29T15:36:23;28.40;67.50
16412;DHT22;8315;52.104;6.304;2022-07-29T15:38:51;28.60;67.80
16412;DHT22;8315;52.104;6.304;2022-07-29T15:41:19;28.80;67.30
16412;DHT22;8315;52.104;6.304;2022-07-29T15:43:46;29.00;69.50
16412;DHT22;8315;52.104;6.304;2022-07-29T15:46:14;29.20;66.50
16412;DHT22;8315;52.104;6.304;2022-07-29T15:48:59;28.90;66.00
16412;DHT22;8315;52.104;6.304;2022-07-29T15:51:27;29.20;64.80
16412;DHT22;8315;52.104;6.304;2022-07-29T15:53:53;29.10;63.50
16412;DHT22;8315;52.104;6.304;2022-07-29T15:56:21;29.00;64.10
16412;DHT22;8315;52.104;6.304;2022-07-29T15:58:48;29.20;65.70
16412;DHT22;8315;52.104;6.304;2022-07-29T16:01:15;29.30;64.80
16412;DHT22;8315;52.104;6.304;2022-07-29T16:03:42;29.40;64.70
16412;DHT22;8315;52.104;6.304;2022-07-29T16:06:09;29.20;63.60
16412;DHT22;8315;52.104;6.304;2022-07-29T16:08:37;29.10;66.00
16412;DHT22;8315;52.104;6.304;2022-07-29T16:11:04;29.30;65.80
16412;DHT22;8315;52.104;6.304;2022-07-29T16:13:30;29.40;64.90
16412;DHT22;8315;52.104;6.304;2022-07-29T16:15:57;29.50;64.60
16412;DHT22;8315;52.104;6.304;2022-07-29T16:18:24;29.50;64.20
16412;DHT22;8315;52.104;6.304;2022-07-29T16:20:51;29.50;63.60
16412;DHT22;8315;52.104;6.304;2022-07-29T16:23:17;29.50;64.90
16412;DHT22;8315;52.104;6.304;2022-07-29T16:25:45;29.40;64.50
16412;DHT22;8315;52.104;6.304;2022-07-29T16:28:12;28.60;64.60